Date,TemperatureHighF,TemperatureAvgF,TemperatureLowF,DewpointHighF,DewpointAvgF,DewpointLowF,HumidityHigh,HumidityAvg,HumidityLow,PressureMaxIn,PressureMinIn,WindSpeedMaxMPH,WindSpeedAvgMPH,GustSpeedMaxMPH,PrecipitationSumIn
2013-1-12,48,48,48,-100,-100,-100,0,0,100,29.49,29.49,24,24,0,0.00
2013-1-14,27,27,27,-100,-100,-100,0,0,100,30.22,30.22,25,25,0,0.00
2013-4-23,56,54,52,-100,-100,-100,0,0,100,29.92,29.86,31,24,0,0.00
2013-4-24,36,36,35,-100,-100,-100,0,0,100,29.86,29.81,28,26,0,0.00
2013-4-25,46,44,43,-100,-100,-100,0,0,100,30.15,29.99,25,22,0,0.00
2013-4-26,43,42,41,-100,-100,-100,0,0,100,30.34,30.30,11,9,0,0.00
2013-4-27,54,51,46,-100,-100,-100,0,0,100,30.29,30.12,23,21,0,0.00
2013-4-28,51,50,44,45,-77,-100,86,14,86,29.90,29.81,28,21,0,0.00
2013-4-29,48,46,43,-100,-100,-100,0,0,100,29.80,29.76,25,17,0,0.00
2013-4-30,56,50,47,50,-78,-100,100,14,100,29.80,29.75,33,26,0,0.00
2013-5-1,50,46,43,-100,-100,-100,0,0,100,30.30,29.83,23,22,0,0.00
2013-5-2,50,45,42,47,-75,-100,96,16,96,30.31,30.17,23,22,0,0.00
2013-5-3,55,50,45,-100,-100,-100,0,0,100,30.15,30.14,28,24,0,0.00
2013-5-4,56,56,56,-100,-100,-100,0,0,100,30.12,30.12,23,23,0,0.00
2013-5-5,57,54,49,45,41,39,86,62,50,30.11,30.10,17,13,0,0.00
2013-5-6,54,52,50,45,-76,-100,71,12,71,30.10,30.07,9,6,0,0.00
2013-5-7,57,54,47,-100,-100,-100,0,0,100,30.05,30.05,14,10,0,0.00
2013-5-8,58,54,49,-100,-100,-100,0,0,100,30.05,30.01,11,9,0,0.00
2013-5-9,73,73,72,-100,-100,-100,0,0,100,29.98,29.96,14,5,0,0.00
2013-5-10,44,41,43,-100,-100,-100,0,0,100,29.89,29.87,38,35,0,0.00
2013-5-11,46,41,36,-100,-100,-100,0,0,100,29.86,29.69,39,22,0,0.00
2013-5-12,41,39,38,-100,-100,-100,0,0,100,29.96,29.89,38,34,0,0.00
2013-5-13,47,40,36,-100,-100,-100,0,0,100,30.11,30.00,23,22,0,0.00
2013-5-14,46,44,43,-100,-100,-100,0,0,100,30.00,29.73,25,11,0,0.00
2013-5-15,65,51,43,-100,-100,-100,0,0,100,29.68,29.58,21,19,0,0.00
2013-5-16,57,49,47,-100,-100,-100,0,0,100,30.06,29.89,29,23,0,0.00
2013-5-17,57,53,48,-100,-100,-100,0,0,100,30.20,30.14,18,16,0,0.00
2013-5-18,57,53,49,-100,-100,-100,0,0,100,30.15,30.13,20,11,0,0.00
2013-5-19,58,54,51,-100,-100,-100,0,0,100,29.97,29.95,13,7,0,0.00
2013-5-20,84,61,50,-100,-100,-100,0,0,100,29.85,29.69,32,22,0,0.00
2013-5-21,50,50,50,-100,-100,-100,0,0,100,29.69,29.66,22,19,0,0.00
2013-5-22,55,54,53,-100,-100,-100,0,0,100,29.71,29.71,17,14,0,0.00
2013-5-23,47,46,44,-100,-100,-100,0,0,100,29.89,29.74,40,30,0,0.00
2013-5-24,45,44,43,42,-64,-100,95,24,95,30.36,30.32,16,16,0,0.00
2013-5-25,55,52,45,-100,-100,-100,0,0,100,30.39,30.30,13,10,0,0.00
2013-5-26,68,52,47,-100,-100,-100,0,0,100,30.30,30.00,16,14,0,0.00
2013-5-27,47,47,47,-100,-100,-100,0,0,100,30.26,30.26,8,8,0,0.00
2013-5-28,53,48,45,-100,-100,-100,0,0,100,30.01,29.98,21,18,0,0.00
2013-5-30,71,71,71,67,67,67,87,87,87,30.00,30.00,14,14,0,0.00
2013-6-3,61,57,48,41,-77,-100,47,8,47,30.04,30.00,23,12,0,0.00
2013-6-4,60,57,45,43,-94,-100,92,4,92,30.20,30.12,18,16,0,0.00
2013-6-5,59,55,50,40,-14,-100,68,38,42,30.21,30.10,11,8,0,0.00
2013-6-6,58,52,48,49,-61,-100,71,17,61,30.14,30.00,26,20,0,0.00
2013-6-7,66,61,55,42,-82,-100,55,7,55,30.00,29.95,11,9,0,0.00
2013-6-8,73,62,55,-100,-100,-100,0,0,100,30.07,29.99,11,7,0,0.00
2013-6-9,58,54,52,52,-70,-100,100,20,100,30.11,30.04,26,20,0,0.00
2013-6-10,62,60,57,57,-22,-100,100,50,100,29.99,29.92,20,13,0,0.00
2013-6-11,61,57,54,55,-57,-100,100,24,75,29.88,29.00,17,12,0,0.00
2013-6-12,56,55,54,-100,-100,-100,0,0,100,29.85,29.84,7,7,0,0.00
2013-6-13,68,67,67,-100,-100,-100,0,0,100,29.92,29.90,25,15,0,0.00
2013-6-14,54,52,52,-100,-100,-100,0,0,100,30.14,30.04,23,12,0,0.00
2013-6-15,66,56,55,44,-93,-100,44,2,44,30.06,29.99,12,10,0,0.00
2013-6-17,55,54,54,-100,-100,-100,0,0,100,30.01,29.98,9,7,0,0.00
2013-6-18,62,61,60,-100,-100,-100,0,0,100,30.02,30.01,28,27,0,0.00
2013-6-19,58,57,56,50,-67,-100,74,16,74,30.20,30.19,10,2,0,0.00
2013-6-20,63,60,57,-100,-100,-100,0,0,100,30.20,20.12,21,18,0,0.00
2013-6-22,64,62,58,-100,-100,-100,0,0,100,30.06,30.02,16,11,0,0.00
2013-6-23,69,67,65,-100,-100,-100,0,0,100,30.03,30.02,12,9,0,0.00
2013-6-24,76,76,75,-100,-100,-100,0,0,100,29.96,29.94,16,15,0,0.00
2013-6-25,79,73,68,-100,-100,-100,0,0,100,29.92,29.88,24,12,0,0.00
2013-6-26,78,73,67,-100,-100,-100,0,0,100,29.85,29.80,8,6,0,0.00
2013-6-27,70,68,66,-100,-100,-100,0,0,100,29.77,29.71,17,10,0,0.00
2013-6-28,68,66,64,-100,-100,-100,0,0,100,29.60,29.57,18,16,0,0.00
2013-6-29,68,64,62,-100,-100,-100,0,0,100,29.71,29.59,18,15,0,0.00
2013-6-30,74,70,67,-100,-100,-100,0,0,100,29.99,29.95,21,17,0,0.00
2013-7-1,64,63,63,-100,-100,-100,0,0,100,30.14,30.13,41,30,0,0.00
2013-7-2,63,63,63,-100,-100,-100,0,0,100,30.15,30.15,18,18,0,0.00
2013-7-3,71,70,69,-100,-100,-100,0,0,100,30.10,30.06,16,13,0,0.00
2013-7-4,71,71,71,-100,-100,-100,0,0,100,30.07,30.07,3,3,0,0.00
2013-7-7,69,68,66,-100,-100,-100,0,0,100,29.96,29.94,14,10,0,0.00
2013-7-8,67,67,67,-100,-100,-100,0,0,100,29.92,29.92,9,9,0,0.00
2013-7-10,74,74,74,-100,-100,-100,0,0,100,29.96,29.96,18,18,0,0.00
2013-7-11,67,66,66,-100,-100,-100,0,0,100,30.12,30.10,9,9,0,0.00
2013-7-12,68,68,68,-100,-100,-100,0,0,100,30.12,30.12,5,5,0,0.00
2013-7-13,75,75,75,-100,-100,-100,0,0,100,30.17,30.17,8,8,0,0.00
2013-7-16,81,81,81,-100,-100,-100,0,0,100,30.01,30.01,7,7,0,0.00
2013-7-18,82,80,79,-100,-100,-100,0,0,100,30.10,30.10,14,12,0,0.00
2013-7-19,73,73,73,-100,-100,-100,0,0,100,29.70,29.70,18,18,0,0.00
2013-7-20,70,69,68,-100,-100,-100,0,0,100,29.77,29.77,21,15,0,0.00
2013-7-21,72,71,68,-100,-100,-100,0,0,100,30.04,29.98,12,9,0,0.00
2013-7-22,82,79,72,-100,-100,-100,0,0,100,29.92,29.75,22,11,0,0.00
2013-7-24,67,62,57,-100,-100,-100,0,0,100,30.07,29.94,25,14,0,0.00
2013-7-25,76,72,71,-100,-100,-100,0,0,100,30.13,30.08,18,16,0,0.00
2013-7-26,73,72,70,-100,-100,-100,0,0,100,30.01,29.93,32,21,0,0.00
2013-7-28,67,61,58,-100,-100,-100,0,0,100,29.88,29.74,24,14,0,0.00
2013-7-29,66,61,58,-100,-100,-100,0,0,100,30.09,29.90,22,10,0,0.00
2013-7-30,65,65,65,-100,-100,-100,0,0,100,30.17,30.17,12,12,0,0.00
2013-7-31,73,68,64,-100,-100,-100,0,0,100,30.13,29.92,17,12,0,0.00
2013-8-1,69,68,66,-100,-100,-100,0,0,100,29.89,29.89,12,12,0,0.00
2013-8-3,67,64,60,-100,-100,-100,0,0,100,29.93,29.90,22,17,0,0.00
2013-8-4,60,60,60,-100,-100,-100,0,0,100,30.10,30.07,23,23,0,0.00
2013-8-5,69,67,63,-100,-100,-100,0,0,100,30.12,29.98,21,16,0,0.00
2013-8-6,71,70,69,55,-85,-100,56,5,56,29.92,29.90,28,19,0,0.00
2013-8-7,71,70,69,-100,-100,-100,0,0,100,29.90,29.88,23,18,0,0.00
2013-8-8,77,69,65,50,-72,-100,56,10,56,30.06,29.91,20,12,0,0.00
2013-8-9,72,68,63,-100,-100,-100,0,0,100,29.96,29.90,27,16,0,0.00
2013-8-10,62,62,61,-100,-100,-100,0,0,100,30.07,30.03,29,22,0,0.00
2013-8-11,73,73,73,-100,-100,-100,0,0,100,30.09,30.09,7,7,0,0.00
2013-8-12,71,67,64,-100,-100,-100,0,0,100,30.04,29.97,12,8,0,0.00
2013-8-13,66,61,59,-100,-100,-100,0,0,100,30.01,29.88,38,30,0,0.00
2013-8-15,70,49,68,-100,-100,-100,0,0,100,30.10,30.10,13,10,0,0.00
2013-8-16,75,74,74,-100,-100,-100,0,0,100,30.16,30.16,13,12,0,0.00
2013-8-18,77,74,70,-100,-100,-100,0,0,100,30.20,30.16,17,14,0,0.00
2013-8-20,76,76,76,-100,-100,-100,0,0,100,30.04,30.04,13,13,0,0.00
2013-8-21,77,77,77,-100,-100,-100,0,0,100,29.96,29.96,24,24,0,0.00
2013-8-23,66,66,66,-100,-100,-100,0,0,100,30.21,30.21,14,14,0,0.00
2013-8-24,72,72,72,-100,-100,-100,0,0,100,30.24,30.24,22,22,0,0.00
2013-8-25,80,78,74,-100,-100,-100,0,0,100,30.07,30.02,29,22,0,0.00
2013-8-27,75,75,75,-100,-100,-100,0,0,100,29.92,29.92,5,5,0,0.00
2013-8-28,73,71,70,-100,-100,-100,0,0,100,30.00,29.98,15,12,0,0.00
2013-8-29,75,75,74,-100,-100,-100,0,0,100,30.05,30.01,17,13,0,0.00
2013-8-30,74,74,74,-100,-100,-100,0,0,100,29.81,29.81,16,16,0,0.00
2013-8-31,68,68,68,-100,-100,-100,0,0,100,29.90,29.86,22,18,0,0.00
2013-9-1,69,69,68,-100,-100,-100,0,0,100,29.84,29.82,9,6,0,0.00
2013-9-2,64,62,60,47,-72,-100,57,11,57,29.83,29.77,31,25,0,0.00
2013-9-3,77,73,67,-100,-100,-100,0,0,100,29.95,29.92,29,22,0,0.00
2013-9-4,65,63,60,-100,-100,-100,0,0,100,30.10,30.03,36,24,0,0.00
2013-9-5,60,59,59,-100,-100,-100,0,0,100,30.28,29.27,11,6,0,0.00
2013-9-6,74,72,71,-100,-100,-100,0,0,100,30.08,30.03,24,18,0,0.00
2013-9-7,66,66,65,-100,-100,-100,0,0,100,29.89,29.89,23,20,0,0.00
2013-9-8,69,66,65,-100,-100,-100,0,0,100,30.14,29.90,34,24,0,0.00
2013-9-9,74,69,65,-100,-100,-100,0,0,100,30.08,29.84,23,14,0,0.00
2013-9-10,75,71,68,-100,-100,-100,0,0,100,29.91,29.81,13,13,0,0.00
2013-9-11,76,72,70,-100,-100,-100,0,0,100,30.01,29.94,23,17,0,0.00
2013-9-12,75,66,59,-100,-100,-100,0,0,100,29.96,29.87,40,25,0,0.00
2013-9-13,54,52,51,-100,-100,-100,0,0,100,30.08,30.04,31,29,0,0.00
2013-9-14,64,60,54,-100,-100,-100,0,0,100,31.04,30.12,17,9,0,0.00
2013-9-15,64,62,59,-100,-100,-100,0,0,100,30.08,30.08,22,19,0,0.00
2013-9-16,59,51,48,-100,-100,-100,0,0,100,30.43,30.10,40,22,0,0.00
2013-9-17,63,61,59,-100,-100,-100,0,0,100,30.41,30.22,24,20,0,0.00
2013-9-18,60,59,56,-100,-100,-100,0,0,100,30.22,30.18,25,20,0,0.00
2013-9-19,72,68,65,-100,-100,-100,0,0,100,30.03,29.98,23,20,0,0.00
2013-9-20,72,69,66,-100,-100,-100,0,0,100,29.84,29.75,37,25,0,0.00
2013-9-21,61,54,53,-100,-100,-100,0,0,100,29.85,29.70,34,29,0,0.00
2013-9-22,58,57,55,-100,-100,-100,0,0,100,30.08,30.08,13,11,0,0.00
2013-9-24,58,57,57,-100,-100,-100,0,0,100,30.18,30.18,6,6,0,0.00
2013-9-25,63,60,58,-100,-100,-100,0,0,100,30.08,30.02,10,7,0,0.00
2013-9-28,65,65,65,-100,-100,-100,0,0,100,30.00,30.00,28,28,0,0.00
2013-10-1,63,63,63,-100,-100,-100,0,0,100,29.82,29.82,5,5,0,0.00
2013-10-2,68,66,64,-100,-100,-100,0,0,100,30.06,30.02,15,13,0,0.00
2013-10-4,61,60,59,-100,-100,-100,0,0,100,30.02,30.00,30,29,0,0.00
2013-10-8,70,61,57,-100,-100,-100,0,0,100,30.16,30.10,24,21,0,0.00
2013-10-10,63,63,63,-100,-100,-100,0,0,100,30.20,30.20,5,5,0,0.00
2013-10-11,65,22,65,-100,-100,-100,0,0,100,30.10,10.30,10,10,0,0.00
2013-10-12,64,64,63,-100,-100,-100,0,0,100,29.92,29.92,29,24,0,0.00
2013-10-15,64,62,60,-100,-100,-100,0,0,100,29.90,29.80,23,17,0,0.00
2013-10-16,59,57,55,-100,-100,-100,0,0,100,29.68,29.66,17,13,0,0.00
2013-10-17,52,51,49,-100,-100,-100,0,0,100,29.86,29.77,25,18,0,0.00
2013-10-18,47,46,46,-100,-100,-100,0,0,100,29.88,29.88,29,27,0,0.00
2013-10-19,47,46,46,-100,-100,-100,0,0,100,29.82,29.75,16,14,0,0.00
2013-10-20,44,43,42,-100,-100,-100,0,0,100,29.84,29.75,14,-661,0,0.00
2013-10-21,44,43,42,-100,-100,-100,0,0,100,29.72,29.69,29,26,0,0.00
2013-10-22,43,43,43,-100,-100,-100,0,0,100,29.87,29.87,24,24,0,0.00
2013-10-23,43,42,42,-100,-100,-100,0,0,100,29.92,29.90,24,20,0,0.00
2013-10-24,42,40,40,-100,-100,-100,0,0,100,29.94,29.89,28,20,0,0.00
2013-10-25,49,46,39,-100,-100,-100,0,0,100,30.19,30.01,38,17,0,0.00
2013-10-26,50,47,43,-100,-100,-100,0,0,100,29.92,29.69,54,43,0,0.00
2013-10-27,50,47,42,-100,-100,-100,0,0,100,29.99,29.86,20,15,0,0.00
2013-10-28,47,47,47,-100,-100,-100,0,0,100,30.14,30.14,28,28,0,0.00
2013-10-29,48,35,38,-100,-100,-100,0,0,100,30.45,30.35,15,9,0,0.00
2013-10-31,60,56,54,-100,-100,-100,0,0,100,29.88,29.35,24,12,0,0.00
2013-11-1,53,50,48,-100,-100,-100,0,0,100,29.62,29.09,45,27,0,0.00
2013-11-2,48,48,48,-100,-100,-100,0,0,100,29.63,29.63,14,14,0,0.00
2013-11-3,49,44,40,-100,-100,-100,0,0,100,30.45,30.08,21,14,0,0.00
2013-11-4,49,46,44,-100,-100,-100,0,0,100,30.46,30.28,44,31,0,0.00
2013-11-5,50,50,50,-100,-100,-100,0,0,100,30.26,30.24,21,20,0,0.00
2013-11-6,55,52,50,-100,-100,-100,0,0,100,30.99,29.71,34,24,0,0.00
2013-11-7,46,41,39,-100,-100,-100,0,0,100,30.08,29.97,33,27,0,0.00
2013-11-8,46,41,36,-100,-100,-100,0,0,100,30.18,29.99,22,17,0,0.00
2013-11-9,48,37,43,-100,-100,-100,0,0,100,29.72,20.70,37,31,0,0.00
2013-11-10,47,45,42,-100,-100,-100,0,0,100,30.14,30.05,26,23,0,0.00
2013-11-12,32,29,27,-100,-100,-100,0,0,100,30.46,30.40,25,23,0,0.00
2013-11-13,50,46,43,-100,-100,-100,0,0,100,29.97,29.96,44,36,0,0.00
2013-11-15,44,43,42,-100,-100,-100,0,0,100,29.90,29.89,23,20,0,0.00
2013-11-16,53,47,44,44,-75,-100,89,15,89,30.02,29.80,36,27,0,0.00
2013-11-17,57,53,48,53,-87,-100,93,8,93,29.59,28.97,40,31,0,0.00
2013-11-18,40,38,33,-100,-100,-100,0,0,100,29.88,29.37,58,48,0,0.00
2013-11-19,37,35,34,-100,-100,-100,0,0,100,30.37,30.35,17,11,0,0.00
2013-11-20,35,35,35,-100,-100,-100,0,0,100,30.39,30.39,23,22,0,0.00
2013-11-21,47,44,43,-100,-100,-100,0,0,100,30.21,30.20,14,14,0,0.00
2013-11-22,38,37,34,-100,-100,-100,0,0,100,30.32,30.11,36,29,0,0.00
2013-11-23,20,20,19,-100,-100,-100,0,0,100,30.39,30.38,36,34,0,0.00
2013-11-24,26,24,21,-100,-100,-100,0,0,100,30.50,30.41,29,26,0,0.00
2013-11-25,37,34,31,-100,-100,-100,0,0,100,29.99,29.92,45,33,0,0.00
2013-11-26,30,30,30,-100,-100,-100,0,0,100,29.92,29.92,29,29,0,0.00
2013-11-27,29,26,23,-100,-100,-100,0,0,100,30.11,26.88,44,33,0,0.00
2013-11-28,28,28,28,-100,-100,-100,0,0,100,30.24,30.24,5,5,0,0.00
2013-11-30,35,35,35,-100,-100,-100,0,0,100,30.36,30.36,37,37,0,0.00
2013-12-1,39,38,37,32,-67,-100,78,20,78,30.04,30.00,16,11,0,0.00
2013-12-2,35,34,33,-100,-100,-100,0,0,100,29.94,29.90,14,12,0,0.00
2013-12-3,35,35,35,-100,-100,-100,0,0,100,29.93,29.92,29,28,0,0.00
2013-12-5,47,42,40,-100,-100,-100,0,0,100,29.63,29.57,34,31,0,0.00
2013-12-6,25,25,25,-100,-100,-100,0,0,100,30.11,30.11,32,32,0,0.00
2013-12-12,12,12,12,-100,-100,-100,0,0,100,30.15,30.15,29,29,0,0.00
2013-12-14,26,21,19,-100,-100,-100,0,0,100,30.30,30.18,36,31,0,0.00
2013-12-15,25,25,25,-100,-100,-100,0,0,100,29.83,29.83,18,18,0,0.00
2013-12-16,19,18,16,-100,-100,-100,0,0,100,30.01,29.95,39,32,0,0.00
2013-12-19,32,22,20,-100,-100,-100,0,0,100,30.06,29.84,24,22,0,0.00
2013-12-20,25,25,25,-100,-100,-100,0,0,100,29.90,29.90,11,11,0,0.00
2013-12-21,30,20,30,-100,-100,-100,0,0,100,29.98,29.98,11,11,0,0.00
2013-12-22,29,28,28,-100,-100,-100,0,0,100,29.91,29.90,31,28,0,0.00
2013-12-23,25,22,20,-100,-100,-100,0,0,100,30.21,30.20,23,19,0,0.00
2013-12-24,19,19,19,-100,-100,-100,0,0,100,30.34,30.32,18,18,0,0.00
2013-12-25,16,16,16,-100,-100,-100,0,0,100,30.14,30.14,34,34,0,0.00
2013-12-28,34,34,34,-100,-100,-100,0,0,100,29.88,29.88,5,5,0,0.00
2013-12-30,16,13,10,-100,-100,-100,0,0,100,30.04,30.04,16,12,0,0.00